createdAt,value
2017-09-27T00:01:15.957Z,94.36
2017-09-27T00:03:43.652Z,94.20
2017-09-27T00:06:11.330Z,94.21
2017-09-27T00:08:39.013Z,94.13
2017-09-27T00:11:06.697Z,94.05
2017-09-27T00:13:34.383Z,93.99
2017-09-27T00:16:02.126Z,94.09
2017-09-27T00:18:29.817Z,94.04
2017-09-27T00:20:57.578Z,93.99
2017-09-27T00:23:25.265Z,93.91
2017-09-27T00:25:53.025Z,93.87
2017-09-27T00:28:20.725Z,93.87
2017-09-27T00:30:48.472Z,93.99
2017-09-27T00:33:16.178Z,93.90
2017-09-27T00:35:43.933Z,93.86
2017-09-27T00:38:11.640Z,93.77
2017-09-27T00:40:39.372Z,93.76
2017-09-27T00:43:07.137Z,93.73
2017-09-27T00:45:34.905Z,93.75
2017-09-27T00:48:02.636Z,93.85
2017-09-27T00:50:30.388Z,93.93
2017-09-27T00:52:58.107Z,93.93
2017-09-27T00:55:25.881Z,93.90
2017-09-27T00:57:53.572Z,93.92
2017-09-27T01:00:21.308Z,93.96
2017-09-27T01:02:49.007Z,93.97
2017-09-27T01:05:16.755Z,94.03
2017-09-27T01:07:44.438Z,94.04
2017-09-27T01:10:13.121Z,94.04
2017-09-27T01:12:40.808Z,94.02
2017-09-27T01:15:08.544Z,93.99
2017-09-27T01:17:36.242Z,93.94
2017-09-27T01:20:03.980Z,93.93
2017-09-27T01:22:31.676Z,94.01
2017-09-27T01:25:00.303Z,94.06
2017-09-27T01:27:27.992Z,94.04
2017-09-27T01:29:55.740Z,94.00
2017-09-27T01:32:23.440Z,93.94
2017-09-27T01:34:51.190Z,93.98
2017-09-27T01:37:18.904Z,93.93
2017-09-27T01:39:46.588Z,93.92
2017-09-27T01:42:14.337Z,94.00
2017-09-27T01:44:42.130Z,93.99
2017-09-27T01:47:09.867Z,94.04
2017-09-27T01:49:37.569Z,94.06
2017-09-27T01:52:05.326Z,94.01
2017-09-27T01:54:33.235Z,93.99
2017-09-27T01:57:00.984Z,93.99
2017-09-27T01:59:28.625Z,94.05
2017-09-27T02:01:56.383Z,94.19
2017-09-27T02:04:24.086Z,94.08
2017-09-27T02:06:51.764Z,94.08
2017-09-27T02:09:19.409Z,94.13
2017-09-27T02:11:47.154Z,94.08
2017-09-27T02:14:14.834Z,94.05
2017-09-27T02:16:42.585Z,94.00
2017-09-27T02:19:10.293Z,93.87
2017-09-27T02:21:38.045Z,93.76
2017-09-27T02:24:05.740Z,93.75
2017-09-27T02:26:33.520Z,93.69
2017-09-27T02:29:01.210Z,93.72
2017-09-27T02:31:28.952Z,93.82
2017-09-27T02:33:56.641Z,93.65
2017-09-27T02:36:24.411Z,93.76
2017-09-27T02:38:52.108Z,93.87
2017-09-27T02:41:19.843Z,93.85
2017-09-27T02:43:47.473Z,93.90
2017-09-27T02:46:15.214Z,93.88
2017-09-27T02:48:42.845Z,93.87
2017-09-27T02:51:10.581Z,93.97
2017-09-27T02:53:38.278Z,94.04
2017-09-27T02:56:06.004Z,94.02
2017-09-27T02:58:33.699Z,93.99
2017-09-27T03:01:01.444Z,94.15
2017-09-27T03:03:29.131Z,94.17
2017-09-27T03:05:56.862Z,94.23
2017-09-27T03:08:24.555Z,94.19
2017-09-27T03:10:52.281Z,94.08
2017-09-27T03:13:19.971Z,94.21
2017-09-27T03:15:51.163Z,94.26
2017-09-27T03:18:18.871Z,94.36
2017-09-27T03:20:46.617Z,94.30
2017-09-27T03:23:14.311Z,94.28
2017-09-27T03:25:42.001Z,94.33
2017-09-27T03:28:09.789Z,94.32
2017-09-27T03:30:37.509Z,94.36
2017-09-27T03:33:05.287Z,94.40
2017-09-27T03:35:33.009Z,94.36
2017-09-27T03:38:00.872Z,94.40
2017-09-27T03:40:28.564Z,94.51
2017-09-27T03:42:56.346Z,94.55
2017-09-27T03:45:23.977Z,94.54
2017-09-27T03:47:51.731Z,94.65
2017-09-27T03:50:19.420Z,94.67
2017-09-27T03:52:47.169Z,94.65
2017-09-27T03:55:14.863Z,94.61
2017-09-27T03:57:42.599Z,94.63
2017-09-27T04:00:10.293Z,94.63
2017-09-27T04:02:38.052Z,94.63
2017-09-27T04:05:05.684Z,94.55
2017-09-27T04:07:33.363Z,94.52
2017-09-27T04:10:00.993Z,94.61
2017-09-27T04:12:28.743Z,94.57
2017-09-27T04:14:56.442Z,94.51
2017-09-27T04:17:24.195Z,94.53
2017-09-27T04:19:51.884Z,94.56
2017-09-27T04:22:19.652Z,94.58
2017-09-27T04:24:47.287Z,94.59
2017-09-27T04:27:15.045Z,94.59
2017-09-27T04:29:42.748Z,94.51
2017-09-27T04:32:10.501Z,94.56
2017-09-27T04:34:38.148Z,94.61
2017-09-27T04:37:05.827Z,94.48
2017-09-27T04:39:33.468Z,94.41
2017-09-27T04:42:01.161Z,94.27
2017-09-27T04:44:28.813Z,94.29
2017-09-27T04:46:56.503Z,94.29
2017-09-27T04:49:24.139Z,94.33
2017-09-27T04:51:51.843Z,94.41
2017-09-27T04:54:19.493Z,94.23
2017-09-27T04:56:47.196Z,94.21
2017-09-27T04:59:14.848Z,94.21
2017-09-27T05:01:42.567Z,94.27
2017-09-27T05:04:10.220Z,94.32
2017-09-27T05:06:37.847Z,94.35
2017-09-27T05:09:05.564Z,94.37
2017-09-27T05:11:33.240Z,94.40
2017-09-27T05:14:00.951Z,94.51
2017-09-27T05:16:28.576Z,94.47
2017-09-27T05:18:56.258Z,94.48
2017-09-27T05:21:23.929Z,94.50
2017-09-27T05:23:51.613Z,94.49
2017-09-27T05:26:19.253Z,94.48
2017-09-27T05:28:46.927Z,94.41
2017-09-27T05:31:14.569Z,94.49
2017-09-27T05:33:42.256Z,94.51
2017-09-27T05:36:09.901Z,94.53
2017-09-27T05:38:37.593Z,94.47
2017-09-27T05:41:05.251Z,94.44
2017-09-27T05:43:32.957Z,94.34
2017-09-27T05:46:00.587Z,94.41
2017-09-27T05:48:28.271Z,94.31
2017-09-27T05:50:55.909Z,94.38
2017-09-27T05:53:23.588Z,94.48
2017-09-27T05:55:51.230Z,94.30
2017-09-27T05:58:18.917Z,94.29
2017-09-27T06:00:46.541Z,94.30
2017-09-27T06:03:14.247Z,94.34
2017-09-27T06:05:41.904Z,94.31
2017-09-27T06:08:09.582Z,94.15
2017-09-27T06:10:37.212Z,94.13
2017-09-27T06:13:04.895Z,94.20
2017-09-27T06:15:32.532Z,94.22
2017-09-27T06:18:00.237Z,94.29
2017-09-27T06:20:27.884Z,94.21
2017-09-27T06:22:55.570Z,94.11
2017-09-27T06:25:23.201Z,93.95
2017-09-27T06:27:50.911Z,93.86
2017-09-27T06:30:18.555Z,93.60
2017-09-27T06:32:46.259Z,93.35
2017-09-27T06:35:13.904Z,93.44
2017-09-27T06:37:41.639Z,93.24
2017-09-27T06:40:09.272Z,93.07
2017-09-27T06:42:36.897Z,93.04
2017-09-27T06:45:04.603Z,93.02
2017-09-27T06:47:32.250Z,92.98
2017-09-27T06:49:59.941Z,93.10
2017-09-27T06:52:27.576Z,93.09
2017-09-27T06:54:55.257Z,93.02
2017-09-27T06:57:22.927Z,92.77
2017-09-27T06:59:50.597Z,92.65
2017-09-27T07:02:18.227Z,92.44
2017-09-27T07:04:45.911Z,92.18
2017-09-27T07:07:13.582Z,92.01
2017-09-27T07:09:41.256Z,91.94
2017-09-27T07:12:08.901Z,91.96
2017-09-27T07:14:36.598Z,91.64
2017-09-27T07:17:04.236Z,91.02
2017-09-27T07:19:31.920Z,90.80
2017-09-27T07:21:59.551Z,90.81
2017-09-27T07:24:27.231Z,90.99
2017-09-27T07:26:54.960Z,91.22
2017-09-27T07:29:22.692Z,91.58
2017-09-27T07:31:50.364Z,91.34
2017-09-27T07:34:18.064Z,91.47
2017-09-27T07:36:45.704Z,91.31
2017-09-27T07:39:13.401Z,91.12
2017-09-27T07:41:41.042Z,91.18
2017-09-27T07:44:08.736Z,91.25
2017-09-27T07:46:36.394Z,91.55
2017-09-27T07:49:04.090Z,91.66
2017-09-27T07:54:04.685Z,91.64
2017-09-27T07:56:32.340Z,92.00
2017-09-27T07:59:00.047Z,92.02
2017-09-27T08:01:27.676Z,91.94
2017-09-27T08:03:55.349Z,92.03
2017-09-27T08:06:22.991Z,91.88
2017-09-27T08:08:50.686Z,91.54
2017-09-27T08:11:18.336Z,91.99
2017-09-27T08:13:46.174Z,91.92
2017-09-27T08:16:13.804Z,91.10
2017-09-27T08:18:41.486Z,90.64
2017-09-27T08:21:09.126Z,90.59
2017-09-27T08:23:36.823Z,90.39
2017-09-27T08:26:04.520Z,90.69
2017-09-27T08:28:32.167Z,90.96
2017-09-27T08:30:59.843Z,91.15
2017-09-27T08:33:27.492Z,91.47
2017-09-27T08:35:55.163Z,91.17
2017-09-27T08:38:22.826Z,90.80
2017-09-27T08:40:50.501Z,90.80
2017-09-27T08:43:18.120Z,90.67
2017-09-27T08:45:45.792Z,90.60
2017-09-27T08:48:13.461Z,90.63
2017-09-27T08:50:41.152Z,90.71
2017-09-27T08:53:08.835Z,90.29
2017-09-27T08:55:36.526Z,89.92
2017-09-27T08:58:04.170Z,90.01
2017-09-27T09:00:31.969Z,89.35
2017-09-27T09:02:59.613Z,89.21
2017-09-27T09:05:27.302Z,89.04
2017-09-27T09:07:54.938Z,88.79
2017-09-27T09:10:22.655Z,88.27
2017-09-27T09:12:50.302Z,88.31
2017-09-27T09:15:17.980Z,87.63
2017-09-27T09:17:45.703Z,87.75
2017-09-27T09:20:13.400Z,88.17
2017-09-27T09:22:41.050Z,88.39
2017-09-27T09:25:08.746Z,88.18
2017-09-27T09:27:36.382Z,88.26
2017-09-27T09:30:04.143Z,88.13
2017-09-27T09:32:31.787Z,88.01
2017-09-27T09:34:59.492Z,87.06
2017-09-27T09:37:27.136Z,86.44
2017-09-27T09:39:54.895Z,86.25
2017-09-27T09:42:22.581Z,85.21
2017-09-27T09:44:50.413Z,85.52
2017-09-27T09:47:18.125Z,84.39
2017-09-27T09:49:45.807Z,84.44
2017-09-27T09:52:13.520Z,82.86
2017-09-27T09:54:41.299Z,82.52
2017-09-27T09:57:09.005Z,82.95
2017-09-27T09:59:43.975Z,83.21
2017-09-27T10:02:11.959Z,82.83
2017-09-27T10:04:39.644Z,81.76
2017-09-27T10:07:07.353Z,82.03
2017-09-27T10:09:35.050Z,81.67
2017-09-27T10:12:02.728Z,81.37
2017-09-27T10:14:30.446Z,80.74
2017-09-27T10:16:58.227Z,78.91
2017-09-27T10:19:27.038Z,79.49
2017-09-27T10:21:54.723Z,79.68
2017-09-27T10:24:22.822Z,80.70
2017-09-27T10:26:54.719Z,81.57
2017-09-27T10:29:28.044Z,80.93
2017-09-27T10:31:55.732Z,79.01
2017-09-27T10:34:23.440Z,79.39
2017-09-27T10:36:51.197Z,80.22
2017-09-27T10:39:18.872Z,79.65
2017-09-27T10:41:46.626Z,78.88
2017-09-27T10:44:14.377Z,79.40
2017-09-27T10:46:42.134Z,77.82
2017-09-27T10:49:09.862Z,77.18
2017-09-27T10:51:37.545Z,77.16
2017-09-27T10:54:05.284Z,76.11
2017-09-27T10:56:33.060Z,77.70
2017-09-27T10:59:00.772Z,78.16
2017-09-27T11:01:28.514Z,77.50
2017-09-27T11:03:56.221Z,78.55
2017-09-27T11:06:23.997Z,77.46
2017-09-27T11:08:51.726Z,78.00
2017-09-27T11:11:19.496Z,77.13
2017-09-27T11:13:47.202Z,77.88
2017-09-27T11:16:14.977Z,79.85
2017-09-27T11:18:42.708Z,80.10
2017-09-27T11:21:10.489Z,79.56
2017-09-27T11:23:38.211Z,79.90
2017-09-27T11:26:05.982Z,79.41
2017-09-27T11:28:33.623Z,79.17
2017-09-27T11:31:01.397Z,79.06
2017-09-27T11:33:29.115Z,79.91
2017-09-27T11:35:56.881Z,79.83
2017-09-27T11:38:24.600Z,80.87
2017-09-27T11:40:52.403Z,80.41
2017-09-27T11:43:20.177Z,80.95
2017-09-27T11:45:47.940Z,79.83
2017-09-27T11:48:15.671Z,80.19
2017-09-27T11:50:43.434Z,80.15
2017-09-27T11:53:11.169Z,80.20
2017-09-27T11:55:38.923Z,80.52
2017-09-27T11:58:06.649Z,80.11
2017-09-27T12:00:34.376Z,81.23
2017-09-27T12:03:02.161Z,80.69
2017-09-27T12:05:29.867Z,79.85
2017-09-27T12:07:57.624Z,80.01
2017-09-27T12:10:25.338Z,79.47
2017-09-27T12:12:53.126Z,80.45
2017-09-27T12:15:20.846Z,80.62
2017-09-27T12:17:48.600Z,80.67
2017-09-27T12:20:16.310Z,80.62
2017-09-27T12:22:44.062Z,80.93
2017-09-27T12:25:11.780Z,80.62
2017-09-27T12:27:39.551Z,80.01
2017-09-27T12:30:07.257Z,79.33
2017-09-27T12:32:35.015Z,79.32
2017-09-27T12:35:02.675Z,78.87
2017-09-27T12:37:30.484Z,79.50
2017-09-27T12:39:58.245Z,79.31
2017-09-27T12:42:25.991Z,79.52
2017-09-27T12:44:53.739Z,79.17
2017-09-27T12:47:21.500Z,79.75
2017-09-27T12:49:49.234Z,79.42
2017-09-27T12:52:16.984Z,79.06
2017-09-27T12:54:44.727Z,79.97
2017-09-27T12:57:12.417Z,79.85
2017-09-27T12:59:40.156Z,78.78
2017-09-27T13:02:08.488Z,78.20
2017-09-27T13:04:36.191Z,78.37
2017-09-27T13:07:03.964Z,78.33
2017-09-27T13:09:31.676Z,78.80
2017-09-27T13:11:59.467Z,79.29
2017-09-27T13:14:27.216Z,79.96
2017-09-27T13:16:54.981Z,78.40
2017-09-27T13:19:22.701Z,79.16
2017-09-27T13:21:50.429Z,79.71
2017-09-27T13:24:18.146Z,79.48
2017-09-27T13:26:45.910Z,80.00
2017-09-27T13:29:13.641Z,80.74
2017-09-27T13:31:41.403Z,80.39
2017-09-27T13:34:09.119Z,80.66
2017-09-27T13:36:36.890Z,81.40
2017-09-27T13:39:04.647Z,81.75
2017-09-27T13:41:32.345Z,82.06
2017-09-27T13:44:00.145Z,82.03
2017-09-27T13:46:27.858Z,82.53
2017-09-27T13:48:55.633Z,81.79
2017-09-27T13:51:23.341Z,81.52
2017-09-27T13:53:51.100Z,80.67
2017-09-27T13:56:18.825Z,81.00
2017-09-27T13:58:46.593Z,80.72
2017-09-27T14:01:14.308Z,80.64
2017-09-27T14:03:42.056Z,81.03
2017-09-27T14:06:09.771Z,80.48
2017-09-27T14:08:37.526Z,80.27
2017-09-27T14:11:05.242Z,80.58
2017-09-27T14:13:33.009Z,80.47
2017-09-27T14:16:00.732Z,80.10
2017-09-27T14:18:28.510Z,79.05
2017-09-27T14:20:56.226Z,79.98
2017-09-27T14:23:24.004Z,80.20
2017-09-27T14:25:51.698Z,79.62
2017-09-27T14:28:20.490Z,80.01
2017-09-27T14:30:51.261Z,80.42
2017-09-27T14:33:23.644Z,80.51
2017-09-27T14:35:56.188Z,79.65
2017-09-27T14:38:23.881Z,79.44
2017-09-27T14:40:51.525Z,79.90
2017-09-27T14:43:19.221Z,79.83
2017-09-27T14:45:46.865Z,80.07
2017-09-27T14:48:14.560Z,80.23
2017-09-27T14:50:42.198Z,80.18
2017-09-27T14:53:09.913Z,80.18
2017-09-27T14:55:37.545Z,80.40
2017-09-27T14:58:05.303Z,80.72
2017-09-27T15:00:36.121Z,80.15
2017-09-27T15:03:04.065Z,80.69
2017-09-27T15:05:33.026Z,80.64
2017-09-27T15:08:01.370Z,80.54
2017-09-27T15:10:31.192Z,80.66
2017-09-27T15:13:01.443Z,80.11
2017-09-27T15:15:30.062Z,80.09
2017-09-27T15:17:57.750Z,80.33
2017-09-27T15:20:25.480Z,80.52
2017-09-27T15:22:53.167Z,81.05
2017-09-27T15:25:20.796Z,81.46
2017-09-27T15:27:55.685Z,81.77
2017-09-27T15:30:23.453Z,81.94
2017-09-27T15:32:51.164Z,82.61
2017-09-27T15:35:18.873Z,82.88
2017-09-27T15:37:46.659Z,83.13
2017-09-27T15:40:14.379Z,83.27
2017-09-27T15:42:42.116Z,83.84
2017-09-27T15:45:09.823Z,83.92
2017-09-27T15:47:37.552Z,84.10
2017-09-27T15:50:05.362Z,84.22
2017-09-27T15:52:33.107Z,84.09
2017-09-27T15:55:00.878Z,84.25
2017-09-27T15:57:28.537Z,84.07
2017-09-27T15:59:56.297Z,84.56
2017-09-27T16:02:24.004Z,84.37
2017-09-27T16:04:51.741Z,84.82
2017-09-27T16:07:19.458Z,84.91
2017-09-27T16:09:47.253Z,85.33
2017-09-27T16:12:14.963Z,85.66
2017-09-27T16:14:42.722Z,85.94
2017-09-27T16:17:10.407Z,86.07
2017-09-27T16:19:38.167Z,86.12
2017-09-27T16:22:05.885Z,86.20
2017-09-27T16:24:33.636Z,86.21
2017-09-27T16:27:01.340Z,85.81
2017-09-27T16:29:29.089Z,85.93
2017-09-27T16:31:56.805Z,86.00
2017-09-27T16:34:24.521Z,85.46
2017-09-27T16:36:52.164Z,85.60
2017-09-27T16:39:19.866Z,85.57
2017-09-27T16:41:47.500Z,85.48
2017-09-27T16:44:15.193Z,85.41
2017-09-27T16:46:42.859Z,85.23
2017-09-27T16:49:10.581Z,85.55
2017-09-27T16:51:38.218Z,85.65
2017-09-27T16:54:05.916Z,85.96
2017-09-27T16:56:33.561Z,86.29
2017-09-27T16:59:01.255Z,86.75
2017-09-27T17:01:28.904Z,86.92
2017-09-27T17:03:56.591Z,87.26
2017-09-27T17:06:24.224Z,87.51
2017-09-27T17:08:51.897Z,87.81
2017-09-27T17:11:19.552Z,87.39
2017-09-27T17:13:47.244Z,87.23
2017-09-27T17:16:14.883Z,87.03
2017-09-27T17:18:42.517Z,86.96
2017-09-27T17:21:10.195Z,86.98
2017-09-27T17:23:37.915Z,86.74
2017-09-27T17:26:05.688Z,86.59
2017-09-27T17:28:33.383Z,86.70
2017-09-27T17:31:01.134Z,86.82
2017-09-27T17:33:28.767Z,86.83
2017-09-27T17:35:56.537Z,86.82
2017-09-27T17:38:24.257Z,86.90
2017-09-27T17:40:52.012Z,87.08
2017-09-27T17:43:19.747Z,87.33
2017-09-27T17:45:47.492Z,87.54
2017-09-27T17:48:15.188Z,87.42
2017-09-27T17:50:42.960Z,87.30
2017-09-27T17:53:10.670Z,87.38
2017-09-27T17:55:38.432Z,87.34
2017-09-27T17:58:06.124Z,87.43
2017-09-27T18:00:33.852Z,87.50
2017-09-27T18:03:01.483Z,87.61
2017-09-27T18:08:34.107Z,87.58
2017-09-27T18:11:07.681Z,87.51
2017-09-27T18:16:35.758Z,86.91
2017-09-27T18:19:03.667Z,86.63
2017-09-27T18:21:31.572Z,86.54
2017-09-27T18:23:59.250Z,86.71
2017-09-27T18:26:27.073Z,87.02
2017-09-27T18:28:54.827Z,87.19
2017-09-27T18:31:22.614Z,87.48
2017-09-27T18:33:50.363Z,87.60
2017-09-27T18:36:18.157Z,87.92
2017-09-27T18:38:45.951Z,88.27
2017-09-27T18:41:13.767Z,88.41
2017-09-27T18:43:41.587Z,88.67
2017-09-27T18:46:09.271Z,88.87
2017-09-27T18:48:36.995Z,89.23
2017-09-27T18:51:04.766Z,89.54
2017-09-27T18:53:32.484Z,89.78
2017-09-27T18:56:00.326Z,89.91
2017-09-27T18:58:28.080Z,90.00
2017-09-27T19:00:55.857Z,90.12
2017-09-27T19:03:23.612Z,90.40
2017-09-27T19:05:51.395Z,90.51
2017-09-27T19:08:19.128Z,90.45
2017-09-27T19:10:46.884Z,90.44
2017-09-27T19:15:56.178Z,90.26
2017-09-27T19:18:23.830Z,90.07
2017-09-27T19:20:51.510Z,89.84
2017-09-27T19:23:19.181Z,89.62
2017-09-27T19:25:46.859Z,89.30
2017-09-27T19:28:21.122Z,89.26
2017-09-27T19:30:48.921Z,89.22
2017-09-27T19:33:19.291Z,89.22
2017-09-27T19:35:55.792Z,89.26
2017-09-27T19:38:23.483Z,89.39
2017-09-27T19:40:56.176Z,89.63
2017-09-27T19:43:24.146Z,89.57
2017-09-27T19:45:51.873Z,89.65
2017-09-27T19:48:19.545Z,89.63
2017-09-27T19:50:49.685Z,89.59
2017-09-27T19:53:17.313Z,89.56
2017-09-27T19:55:45.004Z,89.61
2017-09-27T19:58:12.639Z,89.71
2017-09-27T20:00:40.398Z,89.76
2017-09-27T20:03:08.089Z,90.04
2017-09-27T20:05:35.795Z,90.35
2017-09-27T20:08:03.542Z,90.64
2017-09-27T20:10:31.362Z,90.62
2017-09-27T20:12:59.140Z,90.59
2017-09-27T20:15:26.936Z,90.50
2017-09-27T20:17:54.693Z,90.32
2017-09-27T20:20:22.410Z,90.41
2017-09-27T20:22:55.069Z,90.39
2017-09-27T20:31:01.352Z,90.72
2017-09-27T20:36:33.725Z,91.08
2017-09-27T20:41:46.672Z,91.26
2017-09-27T20:47:14.339Z,91.58
2017-09-27T20:55:17.401Z,92.03
2017-09-27T20:57:52.969Z,92.12
2017-09-27T21:03:07.204Z,92.48
2017-09-27T21:05:42.895Z,92.38
2017-09-27T21:11:05.985Z,92.56
2017-09-27T21:13:49.110Z,92.42
2017-09-27T21:16:17.673Z,92.62
2017-09-27T21:18:45.306Z,92.75
2017-09-27T21:21:13.010Z,92.78
2017-09-27T21:23:40.725Z,92.71
2017-09-27T21:26:08.507Z,92.65
2017-09-27T21:28:36.281Z,92.61
2017-09-27T21:31:03.915Z,92.66
2017-09-27T21:33:31.673Z,92.85
2017-09-27T21:35:59.380Z,93.03
2017-09-27T21:38:27.119Z,93.24
2017-09-27T21:40:54.808Z,93.62
2017-09-27T21:43:22.590Z,93.81
2017-09-27T21:45:50.318Z,93.96
2017-09-27T21:48:18.067Z,94.03
2017-09-27T21:50:45.702Z,93.99
2017-09-27T21:53:13.460Z,93.96
2017-09-27T21:55:41.099Z,93.94
2017-09-27T21:58:08.835Z,93.93
2017-09-27T22:00:36.468Z,93.87
2017-09-27T22:03:04.218Z,93.80
2017-09-27T22:05:31.918Z,93.75
2017-09-27T22:07:59.683Z,93.68
2017-09-27T22:10:27.372Z,93.54
2017-09-27T22:12:55.170Z,93.39
2017-09-27T22:15:22.878Z,93.26
2017-09-27T22:17:50.616Z,93.10
2017-09-27T22:20:18.297Z,93.00
2017-09-27T22:22:46.052Z,92.86
2017-09-27T22:25:13.768Z,92.79
2017-09-27T22:27:41.510Z,92.70
2017-09-27T22:30:09.159Z,92.70
2017-09-27T22:32:36.904Z,92.73
2017-09-27T22:35:04.594Z,92.95
2017-09-27T22:37:32.346Z,92.99
2017-09-27T22:40:00.048Z,93.05
2017-09-27T22:42:27.833Z,92.97
2017-09-27T22:44:55.589Z,92.88
2017-09-27T22:47:23.324Z,92.77
2017-09-27T22:49:51.021Z,92.70
2017-09-27T22:52:18.764Z,92.66
2017-09-27T22:54:46.458Z,92.68
2017-09-27T22:57:14.204Z,92.60
2017-09-27T22:59:41.903Z,92.47
2017-09-27T23:02:09.633Z,92.25
2017-09-27T23:04:37.347Z,92.17
2017-09-27T23:07:05.091Z,92.02
2017-09-27T23:09:32.803Z,92.03
2017-09-27T23:12:00.511Z,91.83
2017-09-27T23:14:28.245Z,91.52
2017-09-27T23:16:55.953Z,91.43
2017-09-27T23:19:23.694Z,91.35
2017-09-27T23:21:51.385Z,91.38
2017-09-27T23:24:19.110Z,91.40
2017-09-27T23:26:46.811Z,91.44
2017-09-27T23:29:14.552Z,91.37
2017-09-27T23:31:42.238Z,91.32
2017-09-27T23:34:09.984Z,91.43
2017-09-27T23:36:37.680Z,91.48
2017-09-27T23:39:05.452Z,91.42
2017-09-27T23:41:33.161Z,91.32
2017-09-27T23:44:00.949Z,91.32
2017-09-27T23:46:28.657Z,91.21
2017-09-27T23:48:56.409Z,91.45
2017-09-27T23:51:24.120Z,91.49
2017-09-27T23:53:51.873Z,91.36
2017-09-27T23:56:19.571Z,91.32
2017-09-27T23:58:47.312Z,91.36
